Time;durP1;ratioP1;P1;durP2;ratioP2;P2;SDS_P1;SDS_P2;PMS_P1;PMS_P2;Temp;Humidity;BMP_temperature;BMP_pressure;BME280_temperature;BME280_humidity;BME280_pressure;Samples;Min_cycle;Max_cycle;Signal;HPM_P1;HPM_P2
2024/01/25 00:01:16;;;;;;;19.67;5.43;;;7.30;99.90;;;;;;5048168;28;20057;-61
2024/01/25 00:03:43;;;;;;;20.42;5.03;;;7.30;99.90;;;;;;5037455;28;20044;-62
2024/01/25 00:06:10;;;;;;;22.20;4.70;;;7.20;99.90;;;;;;5066509;28;20391;-62
2024/01/25 00:08:37;;;;;;;21.67;4.32;;;7.30;99.90;;;;;;5067757;28;20419;-62
2024/01/25 00:11:04;;;;;;;15.25;4.28;;;7.30;99.90;;;;;;5066627;28;20056;-61
2024/01/25 00:13:31;;;;;;;29.83;4.22;;;7.30;99.90;;;;;;5059561;28;20413;-62
2024/01/25 00:15:58;;;;;;;23.73;4.25;;;7.20;99.90;;;;;;5046188;28;20041;-61
2024/01/25 00:18:25;;;;;;;24.15;4.80;;;7.10;99.90;;;;;;5048000;28;20060;-62
2024/01/25 00:20:52;;;;;;;18.40;4.75;;;7.00;99.90;;;;;;5047992;28;20137;-61
2024/01/25 00:23:18;;;;;;;26.17;4.80;;;7.00;99.90;;;;;;5051601;28;20055;-62
2024/01/25 00:25:45;;;;;;;25.40;5.22;;;6.90;99.90;;;;;;5067379;28;20542;-62
2024/01/25 00:28:12;;;;;;;24.23;5.38;;;7.00;99.90;;;;;;5066378;28;20052;-62
2024/01/25 00:30:39;;;;;;;21.48;3.85;;;6.90;99.90;;;;;;5067643;28;20052;-62
2024/01/25 00:33:06;;;;;;;20.65;4.85;;;7.00;99.90;;;;;;5064479;28;20056;-62
2024/01/25 00:35:35;;;;;;;21.38;5.85;;;6.90;99.90;;;;;;5047664;28;20044;-62
2024/01/25 00:38:02;;;;;;;22.00;4.47;;;7.00;99.90;;;;;;5067315;28;20040;-61
2024/01/25 00:40:29;;;;;;;19.20;4.00;;;6.90;99.90;;;;;;5067526;28;20052;-61
2024/01/25 00:42:56;;;;;;;21.10;4.43;;;6.70;99.90;;;;;;5064467;28;20493;-62
2024/01/25 00:45:24;;;;;;;21.45;4.53;;;6.60;99.90;;;;;;5047444;28;20056;-63
2024/01/25 00:47:51;;;;;;;24.20;5.13;;;6.60;99.90;;;;;;5047178;28;20476;-61
2024/01/25 00:50:20;;;;;;;18.30;4.38;;;6.80;99.90;;;;;;5047685;28;20052;-62
2024/01/25 00:52:53;;;;;;;20.60;4.28;;;6.60;99.90;;;;;;5047336;28;20111;-62
2024/01/25 00:55:20;;;;;;;20.85;4.20;;;6.50;99.90;;;;;;5050232;28;20044;-62
2024/01/25 00:57:46;;;;;;;23.38;4.07;;;6.70;99.90;;;;;;5051088;28;20138;-62
2024/01/25 01:00:13;;;;;;;24.85;5.10;;;6.60;99.90;;;;;;5050807;28;20503;-60
2024/01/25 01:02:43;;;;;;;26.55;5.78;;;6.70;99.90;;;;;;5050568;28;20059;-60
2024/01/25 01:05:11;;;;;;;27.88;4.43;;;6.70;99.90;;;;;;5051455;28;20053;-62
2024/01/25 01:07:40;;;;;;;23.38;5.35;;;6.70;99.90;;;;;;5050592;28;20045;-62
2024/01/25 01:10:08;;;;;;;23.00;4.85;;;6.70;99.90;;;;;;5049285;28;20356;-62
2024/01/25 01:12:35;;;;;;;31.08;5.28;;;6.80;99.90;;;;;;5048928;28;20041;-61
2024/01/25 01:15:03;;;;;;;26.85;5.45;;;6.60;99.90;;;;;;5068782;28;20050;-62
2024/01/25 01:17:30;;;;;;;20.67;4.10;;;6.60;99.90;;;;;;5070586;28;20366;-62
2024/01/25 01:19:56;;;;;;;25.83;5.10;;;6.70;99.90;;;;;;5070975;28;20310;-62
2024/01/25 01:22:22;;;;;;;33.38;5.90;;;6.70;99.90;;;;;;5070416;28;20048;-62
2024/01/25 01:24:51;;;;;;;23.58;4.90;;;6.80;99.90;;;;;;5054077;28;20371;-64
2024/01/25 01:27:20;;;;;;;17.65;4.47;;;6.70;99.90;;;;;;5050768;28;20044;-61
2024/01/25 01:29:49;;;;;;;18.95;4.72;;;6.70;99.90;;;;;;5050850;28;20049;-62
2024/01/25 01:32:17;;;;;;;23.13;4.38;;;6.50;99.90;;;;;;5050097;28;20144;-63
2024/01/25 01:34:44;;;;;;;21.45;4.68;;;6.50;99.90;;;;;;5066122;28;20075;-63
2024/01/25 01:37:10;;;;;;;20.58;4.68;;;6.50;99.90;;;;;;5070320;28;20064;-62
2024/01/25 01:39:38;;;;;;;23.13;4.88;;;6.60;99.90;;;;;;5070153;28;20419;-63
2024/01/25 01:42:05;;;;;;;23.35;6.13;;;6.50;99.90;;;;;;5068488;28;20060;-61
2024/01/25 01:44:31;;;;;;;24.75;4.70;;;6.40;99.90;;;;;;5038473;28;20079;-62
2024/01/25 01:46:58;;;;;;;22.63;4.32;;;6.30;99.90;;;;;;5050248;28;20049;-62
2024/01/25 01:49:26;;;;;;;26.08;5.55;;;6.40;99.90;;;;;;5048969;28;20053;-61
2024/01/25 01:51:52;;;;;;;27.35;4.70;;;6.50;99.90;;;;;;5049566;28;20079;-62
2024/01/25 01:54:20;;;;;;;26.73;5.75;;;6.40;99.90;;;;;;5061759;28;20433;-61
2024/01/25 01:56:47;;;;;;;23.15;5.15;;;6.40;99.90;;;;;;5069889;28;20508;-61
2024/01/25 01:59:16;;;;;;;24.33;4.75;;;6.40;99.90;;;;;;5068700;28;20530;-62
2024/01/25 02:01:42;;;;;;;24.08;5.05;;;6.30;99.90;;;;;;5068350;28;20419;-62
2024/01/25 02:04:08;;;;;;;28.98;5.28;;;6.50;99.90;;;;;;5058740;28;20049;-62
2024/01/25 02:06:35;;;;;;;27.35;5.78;;;6.30;99.90;;;;;;5048565;28;20106;-62
2024/01/25 02:09:02;;;;;;;29.60;5.97;;;6.30;99.90;;;;;;5049235;28;20069;-62
2024/01/25 02:11:29;;;;;;;22.90;4.57;;;6.40;99.90;;;;;;5049108;28;20067;-62
2024/01/25 02:13:56;;;;;;;21.42;4.38;;;6.20;99.90;;;;;;5058037;28;20041;-61
2024/01/25 02:16:23;;;;;;;29.02;5.75;;;6.50;99.90;;;;;;5069547;28;20115;-62
2024/01/25 02:18:49;;;;;;;23.45;4.60;;;6.30;99.90;;;;;;5069893;28;20467;-62
2024/01/25 02:21:15;;;;;;;22.42;5.68;;;6.30;99.90;;;;;;5069120;28;20044;-62
2024/01/25 02:23:43;;;;;;;28.02;5.40;;;6.20;99.90;;;;;;5061133;28;20111;-62
2024/01/25 02:26:09;;;;;;;24.25;4.95;;;6.30;99.90;;;;;;5049414;28;20060;-62
2024/01/25 02:28:35;;;;;;;23.92;5.32;;;6.10;99.90;;;;;;5049434;28;20099;-63
2024/01/25 02:31:02;;;;;;;21.70;5.03;;;6.30;99.90;;;;;;5048994;28;20418;-63
2024/01/25 02:33:29;;;;;;;18.63;4.10;;;6.30;99.90;;;;;;5053495;28;20461;-61
2024/01/25 02:35:55;;;;;;;25.23;5.70;;;6.30;99.90;;;;;;5069250;28;20041;-61
2024/01/25 02:38:22;;;;;;;19.17;3.65;;;6.30;99.90;;;;;;5067914;28;20048;-62
2024/01/25 02:40:49;;;;;;;23.63;5.97;;;6.10;99.90;;;;;;5069388;28;20048;-62
2024/01/25 02:43:16;;;;;;;30.10;5.30;;;6.30;99.90;;;;;;5065111;28;20965;-62
2024/01/25 02:45:43;;;;;;;22.35;4.22;;;6.20;99.90;;;;;;5048773;28;20786;-63
2024/01/25 02:48:09;;;;;;;20.58;4.03;;;6.20;99.90;;;;;;5049147;28;20065;-62
2024/01/25 02:50:35;;;;;;;23.85;4.93;;;6.10;99.90;;;;;;5048783;28;20483;-62
2024/01/25 02:53:03;;;;;;;23.65;4.97;;;6.20;99.90;;;;;;5049409;28;20052;-63
2024/01/25 02:55:29;;;;;;;25.73;5.10;;;5.90;99.90;;;;;;5068847;28;20064;-61
2024/01/25 02:57:55;;;;;;;27.55;6.38;;;5.90;99.90;;;;;;5068608;28;20056;-62
2024/01/25 03:00:22;;;;;;;21.88;4.57;;;5.90;99.90;;;;;;5067732;28;20357;-61
2024/01/25 03:02:48;;;;;;;21.80;5.00;;;6.10;99.90;;;;;;5068621;28;20290;-61
2024/01/25 03:05:14;;;;;;;22.50;5.68;;;6.10;99.90;;;;;;5068338;28;20072;-63
2024/01/25 03:07:41;;;;;;;25.08;5.38;;;5.90;99.90;;;;;;5068402;28;20154;-62
2024/01/25 03:10:07;;;;;;;19.42;5.20;;;5.80;99.90;;;;;;5068593;28;20040;-60
2024/01/25 03:12:33;;;;;;;33.08;5.38;;;5.80;99.90;;;;;;5068179;28;20060;-62
2024/01/25 03:15:01;;;;;;;32.42;5.32;;;6.00;99.90;;;;;;5051061;28;20053;-62
2024/01/25 03:17:27;;;;;;;21.52;4.55;;;5.80;99.90;;;;;;5048515;28;20049;-62
2024/01/25 03:19:54;;;;;;;30.70;5.47;;;5.90;99.90;;;;;;5048847;28;20068;-60
2024/01/25 03:22:21;;;;;;;29.55;5.95;;;5.80;99.90;;;;;;5047926;28;20457;-62
2024/01/25 03:24:48;;;;;;;15.45;5.20;;;5.90;99.90;;;;;;5063961;28;20059;-62
2024/01/25 03:27:14;;;;;;;23.63;5.50;;;5.70;99.90;;;;;;5067707;28;20052;-61
2024/01/25 03:29:45;;;;;;;27.10;5.50;;;5.70;99.90;;;;;;5068350;28;20067;-61
2024/01/25 03:32:12;;;;;;;29.27;5.55;;;5.80;99.90;;;;;;5066643;28;20052;-62
2024/01/25 03:34:39;;;;;;;26.20;5.70;;;5.70;99.90;;;;;;5052596;28;20055;-62
2024/01/25 03:37:05;;;;;;;29.25;7.57;;;5.70;99.90;;;;;;5048155;28;20098;-63
2024/01/25 03:39:31;;;;;;;23.90;4.55;;;5.80;99.90;;;;;;5048280;28;20362;-61
2024/01/25 03:41:58;;;;;;;23.70;4.57;;;5.90;99.90;;;;;;5047823;28;20114;-62
2024/01/25 03:44:25;;;;;;;29.85;5.10;;;5.60;99.90;;;;;;5060105;28;20064;-62
2024/01/25 03:46:52;;;;;;;33.08;6.07;;;5.80;99.90;;;;;;5068106;28;20056;-61
2024/01/25 03:49:19;;;;;;;25.20;4.95;;;5.80;99.90;;;;;;5050649;28;20048;-63
2024/01/25 03:51:46;;;;;;;27.13;4.65;;;5.70;99.90;;;;;;5067452;28;20141;-62
2024/01/25 03:54:13;;;;;;;23.10;4.47;;;5.70;99.90;;;;;;5057125;28;20041;-62
2024/01/25 03:56:39;;;;;;;25.60;5.43;;;5.70;99.90;;;;;;5046702;28;20089;-62
2024/01/25 03:59:10;;;;;;;24.02;4.05;;;5.50;99.90;;;;;;5047925;28;20057;-62
2024/01/25 04:01:47;;;;;;;25.80;4.53;;;5.60;99.90;;;;;;5046802;28;20049;-63
2024/01/25 04:04:15;;;;;;;23.83;4.63;;;5.50;99.90;;;;;;5057744;28;20044;-62
2024/01/25 04:06:42;;;;;;;18.83;4.47;;;5.60;99.90;;;;;;5050071;28;20052;-61
2024/01/25 04:09:09;;;;;;;26.13;5.32;;;5.50;99.90;;;;;;5066467;28;20508;-63
2024/01/25 04:11:39;;;;;;;28.75;6.70;;;5.60;99.90;;;;;;5067548;28;20044;-63
2024/01/25 04:14:06;;;;;;;25.30;5.43;;;5.50;99.90;;;;;;5040650;28;20624;-61
2024/01/25 04:16:33;;;;;;;22.83;4.65;;;5.40;99.90;;;;;;5047781;28;20049;-63
2024/01/25 04:19:00;;;;;;;30.77;5.75;;;5.50;99.90;;;;;;5047348;28;20048;-62
2024/01/25 04:21:27;;;;;;;22.08;5.25;;;5.60;99.90;;;;;;5047263;28;20061;-62
2024/01/25 04:23:54;;;;;;;19.08;5.18;;;5.50;99.90;;;;;;5055003;28;20135;-62
2024/01/25 04:26:24;;;;;;;25.95;4.93;;;5.40;99.90;;;;;;5068171;28;20087;-62
2024/01/25 04:28:50;;;;;;;26.08;4.30;;;5.50;99.90;;;;;;5068106;28;20056;-63
2024/01/25 04:31:17;;;;;;;29.92;5.28;;;5.30;99.90;;;;;;5069804;28;20067;-62
2024/01/25 04:33:43;;;;;;;22.73;4.35;;;5.30;99.90;;;;;;5065563;28;20049;-61
2024/01/25 04:36:10;;;;;;;23.10;4.82;;;5.50;99.90;;;;;;5051970;28;20397;-62
2024/01/25 04:38:36;;;;;;;25.23;4.32;;;5.30;99.90;;;;;;5051523;28;20049;-62
2024/01/25 04:41:03;;;;;;;25.08;4.78;;;5.30;99.90;;;;;;5049518;28;20437;-62
2024/01/25 04:43:36;;;;;;;24.60;5.40;;;5.50;99.90;;;;;;5055113;28;20044;-61
2024/01/25 04:46:03;;;;;;;24.13;3.95;;;5.30;99.90;;;;;;5071419;28;20059;-63
2024/01/25 04:48:30;;;;;;;19.23;3.88;;;5.30;99.90;;;;;;5071384;28;20044;-62
2024/01/25 04:50:58;;;;;;;22.90;3.90;;;5.20;99.90;;;;;;5070662;28;20472;-64
2024/01/25 04:53:25;;;;;;;18.02;4.03;;;5.40;99.90;;;;;;5065972;28;20045;-60
2024/01/25 04:55:57;;;;;;;25.70;4.93;;;5.20;99.90;;;;;;5049814;28;20049;-62
2024/01/25 04:58:24;;;;;;;22.77;5.25;;;5.20;99.90;;;;;;5051009;28;20041;-62
2024/01/25 05:00:52;;;;;;;24.92;4.20;;;5.20;99.90;;;;;;5049988;28;20053;-62
2024/01/25 05:03:19;;;;;;;27.08;5.05;;;5.30;99.90;;;;;;5051911;28;20059;-62
2024/01/25 05:05:46;;;;;;;23.55;4.35;;;5.30;99.90;;;;;;5052721;28;20052;-62
2024/01/25 05:08:12;;;;;;;23.75;4.60;;;5.20;99.90;;;;;;5069003;28;20484;-63
2024/01/25 05:10:39;;;;;;;28.38;4.82;;;5.20;99.90;;;;;;5070926;28;20120;-61
2024/01/25 05:13:07;;;;;;;18.95;4.60;;;5.40;99.90;;;;;;5068357;28;20316;-63
2024/01/25 05:15:33;;;;;;;23.10;4.80;;;5.30;99.90;;;;;;5050543;28;20049;-62
2024/01/25 05:18:02;;;;;;;32.05;5.93;;;5.20;99.90;;;;;;5050818;28;20044;-62
2024/01/25 05:20:32;;;;;;;30.48;6.53;;;5.30;99.90;;;;;;5051040;28;20083;-61
2024/01/25 05:23:01;;;;;;;35.85;7.15;;;5.20;99.90;;;;;;5050300;28;20053;-61
2024/01/25 05:25:28;;;;;;;28.08;5.68;;;5.10;99.90;;;;;;5070238;28;20445;-61
2024/01/25 05:27:55;;;;;;;27.02;5.95;;;5.00;99.90;;;;;;5069968;28;20082;-62
2024/01/25 05:30:25;;;;;;;18.60;4.00;;;5.20;99.90;;;;;;5070590;28;20117;-63
2024/01/25 05:32:54;;;;;;;16.60;3.65;;;4.90;99.90;;;;;;5068853;28;20052;-63
2024/01/25 05:35:20;;;;;;;17.85;3.70;;;5.10;99.90;;;;;;5051526;28;20047;-61
2024/01/25 05:37:47;;;;;;;19.73;4.18;;;4.80;99.90;;;;;;5050672;28;20494;-61
2024/01/25 05:40:13;;;;;;;24.80;5.65;;;4.70;99.90;;;;;;5049429;28;20444;-61
2024/01/25 05:42:42;;;;;;;18.15;4.38;;;4.70;99.90;;;;;;5050225;28;20067;-61
2024/01/25 05:45:09;;;;;;;16.63;4.28;;;4.70;99.90;;;;;;5066582;28;20543;-62
2024/01/25 05:47:35;;;;;;;25.48;4.78;;;4.60;99.90;;;;;;5070570;28;20048;-61
2024/01/25 05:50:02;;;;;;;15.90;4.72;;;4.70;99.90;;;;;;5068890;28;20044;-62
2024/01/25 05:52:29;;;;;;;28.33;5.82;;;4.50;99.90;;;;;;5069636;28;20119;-61
2024/01/25 05:54:55;;;;;;;23.15;5.38;;;4.60;99.90;;;;;;5054366;28;20432;-62
2024/01/25 05:57:21;;;;;;;24.17;4.95;;;4.40;99.90;;;;;;5050002;28;20414;-61
2024/01/25 05:59:47;;;;;;;15.63;3.70;;;4.50;99.90;;;;;;5050215;28;20326;-62
2024/01/25 06:02:14;;;;;;;20.73;4.57;;;4.60;99.90;;;;;;5059550;28;20489;-62
2024/01/25 06:04:40;;;;;;;17.77;4.70;;;4.40;99.90;;;;;;5064897;28;20480;-62
2024/01/25 06:07:06;;;;;;;18.92;4.88;;;4.40;99.90;;;;;;5069155;28;20063;-63
2024/01/25 06:09:32;;;;;;;22.85;4.95;;;4.50;99.90;;;;;;5050940;28;20052;-63
2024/01/25 06:11:59;;;;;;;26.27;5.18;;;4.30;99.90;;;;;;5069301;28;20080;-62
2024/01/25 06:14:25;;;;;;;22.13;4.82;;;4.50;99.90;;;;;;5061502;28;20048;-62
2024/01/25 06:16:51;;;;;;;23.00;5.53;;;4.50;99.90;;;;;;5069397;28;20059;-61
2024/01/25 06:19:18;;;;;;;17.08;4.65;;;4.30;99.90;;;;;;5069652;28;20071;-62
2024/01/25 06:21:44;;;;;;;23.75;4.60;;;4.50;99.90;;;;;;5069167;28;20044;-61
2024/01/25 06:24:12;;;;;;;17.33;4.22;;;4.20;99.90;;;;;;5067413;28;20059;-62
2024/01/25 06:26:38;;;;;;;22.75;4.70;;;4.30;99.90;;;;;;5069582;28;20139;-62
2024/01/25 06:29:04;;;;;;;20.25;5.38;;;4.50;99.90;;;;;;5067611;28;20228;-62
2024/01/25 06:31:31;;;;;;;23.30;4.60;;;4.40;99.90;;;;;;5068819;28;20063;-61
2024/01/25 06:33:58;;;;;;;22.63;4.45;;;4.40;99.90;;;;;;5062154;28;20060;-63
2024/01/25 06:36:24;;;;;;;16.92;4.13;;;4.40;99.90;;;;;;5049759;28;20091;-62
2024/01/25 06:38:50;;;;;;;19.70;4.60;;;4.20;99.90;;;;;;5035950;28;20475;-62
2024/01/25 06:41:17;;;;;;;18.45;4.78;;;4.30;99.90;;;;;;5067053;28;20079;-62
2024/01/25 06:43:43;;;;;;;20.63;5.07;;;4.40;99.90;;;;;;5068305;28;20040;-62
2024/01/25 06:46:09;;;;;;;20.88;4.55;;;4.20;99.90;;;;;;5068481;28;20044;-62
2024/01/25 06:48:35;;;;;;;21.90;5.07;;;4.20;99.90;;;;;;5068359;28;20056;-62
2024/01/25 06:51:02;;;;;;;22.20;5.03;;;4.40;99.90;;;;;;5067691;28;20432;-61
2024/01/25 06:53:28;;;;;;;21.63;4.63;;;4.40;99.90;;;;;;5066576;28;20041;-61
2024/01/25 06:55:55;;;;;;;17.65;4.70;;;4.30;99.90;;;;;;5068133;28;20052;-62
2024/01/25 06:58:21;;;;;;;16.08;4.22;;;4.20;99.90;;;;;;5066988;28;20055;-62
2024/01/25 07:00:47;;;;;;;27.25;4.88;;;4.10;99.90;;;;;;5065038;28;20048;-63
2024/01/25 07:03:15;;;;;;;25.40;4.72;;;4.10;99.90;;;;;;5066332;28;20156;-63
2024/01/25 07:05:41;;;;;;;22.60;4.93;;;4.10;99.90;;;;;;5067965;28;20068;-62
2024/01/25 07:08:12;;;;;;;21.17;4.80;;;4.10;99.90;;;;;;5068115;28;20052;-61
2024/01/25 07:10:40;;;;;;;21.67;4.97;;;4.00;99.90;;;;;;5068818;28;20052;-61
2024/01/25 07:13:06;;;;;;;18.23;4.50;;;4.30;99.90;;;;;;5068278;28;20036;-62
2024/01/25 07:15:32;;;;;;;18.50;4.18;;;4.20;99.90;;;;;;5068181;28;20045;-61
2024/01/25 07:17:59;;;;;;;17.92;5.43;;;4.20;99.90;;;;;;5067432;28;20396;-62
2024/01/25 07:20:25;;;;;;;22.55;5.45;;;4.20;99.90;;;;;;5067159;28;20140;-62
2024/01/25 07:22:51;;;;;;;23.75;4.25;;;4.10;99.90;;;;;;5064047;28;20384;-62
2024/01/25 07:25:18;;;;;;;24.50;4.80;;;4.20;99.90;;;;;;5060742;28;20048;-61
2024/01/25 07:27:45;;;;;;;27.15;5.47;;;4.20;99.90;;;;;;5070345;28;20056;-62
2024/01/25 07:30:12;;;;;;;20.20;4.93;;;4.10;99.90;;;;;;5070688;28;20048;-62
2024/01/25 07:32:41;;;;;;;22.48;5.75;;;4.00;99.90;;;;;;5070808;28;20575;-61
2024/01/25 07:35:11;;;;;;;27.30;5.45;;;4.20;99.90;;;;;;5053882;28;20057;-61
2024/01/25 07:37:40;;;;;;;23.52;6.13;;;4.00;99.90;;;;;;5065823;28;20441;-62
2024/01/25 07:40:10;;;;;;;20.63;5.30;;;4.00;99.90;;;;;;5070318;28;20044;-63
2024/01/25 07:42:36;;;;;;;20.80;4.97;;;4.10;99.90;;;;;;5068997;28;20048;-63
2024/01/25 07:45:03;;;;;;;24.83;5.90;;;4.00;99.90;;;;;;5065185;28;20045;-62
2024/01/25 07:47:29;;;;;;;22.85;4.70;;;4.10;99.90;;;;;;5069825;28;20044;-61
2024/01/25 07:49:56;;;;;;;26.13;6.47;;;3.90;99.90;;;;;;5070177;28;20058;-62
2024/01/25 07:52:22;;;;;;;22.98;6.10;;;4.20;99.90;;;;;;5070078;28;20049;-62
2024/01/25 07:54:49;;;;;;;20.60;5.95;;;4.20;99.90;;;;;;5054569;28;20094;-62
2024/01/25 07:57:15;;;;;;;22.08;4.60;;;4.20;99.90;;;;;;5069547;28;20542;-63
2024/01/25 07:59:41;;;;;;;19.60;4.70;;;4.10;99.90;;;;;;5070086;28;20143;-61
2024/01/25 08:02:08;;;;;;;19.25;4.25;;;4.00;99.90;;;;;;5070047;28;20060;-62
2024/01/25 08:04:34;;;;;;;21.92;5.30;;;4.10;99.90;;;;;;5069513;28;20384;-63
2024/01/25 08:07:00;;;;;;;18.15;4.72;;;4.00;99.90;;;;;;5073783;28;20146;-63
2024/01/25 08:09:26;;;;;;;26.48;5.95;;;4.20;99.90;;;;;;5074158;28;20060;-62
2024/01/25 08:11:53;;;;;;;23.58;4.78;;;4.20;99.90;;;;;;5073996;28;20437;-62
2024/01/25 08:14:19;;;;;;;22.38;5.20;;;4.10;99.90;;;;;;5059638;28;20048;-64
2024/01/25 08:16:45;;;;;;;21.42;5.00;;;4.00;99.90;;;;;;5070091;28;20083;-63
2024/01/25 08:19:12;;;;;;;14.10;4.97;;;4.10;99.90;;;;;;5072839;28;20049;-62
2024/01/25 08:21:38;;;;;;;21.98;4.80;;;4.30;99.90;;;;;;5073651;28;20049;-62
2024/01/25 08:24:04;;;;;;;17.00;4.60;;;4.30;99.90;;;;;;5065404;28;20076;-62
2024/01/25 08:26:31;;;;;;;21.27;5.55;;;4.10;99.90;;;;;;5053376;28;20056;-61
2024/01/25 08:28:57;;;;;;;17.88;4.40;;;4.40;99.90;;;;;;5052559;28;20132;-63
2024/01/25 08:31:23;;;;;;;22.02;5.60;;;4.30;99.90;;;;;;5061826;28;20317;-62
2024/01/25 08:33:49;;;;;;;21.83;5.75;;;4.40;99.90;;;;;;5068329;28;20059;-61
2024/01/25 08:36:19;;;;;;;20.90;5.30;;;4.30;99.90;;;;;;5053347;28;20491;-62
2024/01/25 08:38:45;;;;;;;16.42;4.85;;;4.40;99.90;;;;;;5053858;28;20057;-61
2024/01/25 08:41:15;;;;;;;17.55;5.03;;;4.40;99.90;;;;;;5053458;28;20460;-61
2024/01/25 08:43:42;;;;;;;17.60;5.13;;;4.50;99.90;;;;;;5056912;28;20040;-62
2024/01/25 08:46:08;;;;;;;18.95;5.30;;;4.50;99.90;;;;;;5073011;28;20052;-62
2024/01/25 08:48:34;;;;;;;25.77;6.38;;;4.30;99.90;;;;;;5072494;28;20056;-61
2024/01/25 08:51:01;;;;;;;25.25;5.65;;;4.30;99.90;;;;;;5073552;28;20059;-62
2024/01/25 08:53:30;;;;;;;21.02;4.85;;;4.60;99.90;;;;;;5071282;28;20098;-61
2024/01/25 08:55:57;;;;;;;23.35;5.90;;;4.50;99.90;;;;;;5053215;28;20072;-61
2024/01/25 08:58:23;;;;;;;26.83;5.97;;;4.50;99.90;;;;;;5053613;28;20049;-62
2024/01/25 09:00:49;;;;;;;23.67;6.15;;;4.70;99.90;;;;;;5053867;28;20045;-63
2024/01/25 09:03:16;;;;;;;19.58;6.05;;;4.60;99.90;;;;;;5036600;28;20057;-61
2024/01/25 09:05:44;;;;;;;20.85;4.65;;;4.80;99.90;;;;;;5073087;28;20041;-63
2024/01/25 09:08:12;;;;;;;23.00;5.32;;;4.60;99.90;;;;;;5071296;28;20053;-62
2024/01/25 09:10:39;;;;;;;21.58;5.85;;;4.50;99.90;;;;;;5072296;28;20526;-62
2024/01/25 09:13:06;;;;;;;21.33;7.05;;;4.70;99.90;;;;;;5072208;28;20078;-62
2024/01/25 09:15:32;;;;;;;15.18;4.40;;;4.60;99.90;;;;;;5053046;28;20063;-62
2024/01/25 09:17:59;;;;;;;27.48;7.05;;;4.80;99.90;;;;;;5052608;28;20068;-64
2024/01/25 09:20:25;;;;;;;18.90;5.03;;;4.70;99.90;;;;;;5052411;28;20057;-60
2024/01/25 09:22:56;;;;;;;21.63;5.15;;;4.70;99.90;;;;;;5052178;28;20048;-61
2024/01/25 09:25:23;;;;;;;20.63;4.80;;;5.00;99.90;;;;;;5069561;28;20070;-61
2024/01/25 09:27:49;;;;;;;22.88;5.30;;;4.90;99.90;;;;;;5071687;28;20052;-62
2024/01/25 09:30:16;;;;;;;21.42;5.25;;;5.00;99.90;;;;;;5072241;28;20131;-62
2024/01/25 09:32:42;;;;;;;21.85;5.10;;;5.00;99.90;;;;;;5052759;28;20456;-61
2024/01/25 09:35:09;;;;;;;18.80;4.72;;;5.00;99.90;;;;;;5067332;28;20122;-60
2024/01/25 09:37:37;;;;;;;20.80;5.35;;;5.10;99.90;;;;;;5070511;28;20082;-62
2024/01/25 09:40:03;;;;;;;22.98;5.97;;;5.20;99.90;;;;;;5072228;28;20394;-62
2024/01/25 09:42:30;;;;;;;15.10;4.40;;;5.40;99.90;;;;;;5071968;28;20118;-63
2024/01/25 09:44:56;;;;;;;25.30;5.53;;;5.40;99.90;;;;;;5058121;28;20056;-61
2024/01/25 09:47:23;;;;;;;22.13;4.85;;;5.20;99.90;;;;;;5051345;28;20078;-61
2024/01/25 09:49:49;;;;;;;22.08;5.70;;;5.30;99.90;;;;;;5050656;28;20049;-64
2024/01/25 09:52:19;;;;;;;21.38;4.93;;;5.20;99.90;;;;;;5051994;28;20060;-62
2024/01/25 09:54:45;;;;;;;23.50;5.85;;;5.30;99.90;;;;;;5045453;28;20048;-62
2024/01/25 09:57:21;;;;;;;16.98;5.47;;;5.40;99.90;;;;;;5071324;28;20052;-62
2024/01/25 09:59:47;;;;;;;20.05;5.30;;;5.30;99.90;;;;;;5054208;28;20044;-62
2024/01/25 10:02:13;;;;;;;21.88;5.85;;;5.50;99.90;;;;;;5071202;28;20460;-62
2024/01/25 10:04:40;;;;;;;16.25;5.55;;;5.40;99.90;;;;;;5059990;28;20198;-62
2024/01/25 10:07:06;;;;;;;18.70;5.40;;;5.40;99.90;;;;;;5051026;28;20103;-64
2024/01/25 10:09:40;;;;;;;23.75;4.95;;;5.70;99.90;;;;;;5051272;28;20053;-62
2024/01/25 10:12:07;;;;;;;22.17;5.20;;;5.60;99.90;;;;;;5051367;28;20064;-63
2024/01/25 10:14:33;;;;;;;21.75;5.82;;;5.60;99.90;;;;;;5060797;28;20056;-62
2024/01/25 10:17:00;;;;;;;24.67;6.32;;;5.70;99.90;;;;;;5070661;28;20110;-63
2024/01/25 10:19:27;;;;;;;20.80;5.22;;;5.90;99.90;;;;;;5071258;28;20360;-62
2024/01/25 10:21:53;;;;;;;21.42;6.25;;;5.80;99.90;;;;;;5071102;28;20060;-62
2024/01/25 10:24:21;;;;;;;21.88;5.63;;;5.90;99.90;;;;;;5062660;28;20484;-62
2024/01/25 10:26:49;;;;;;;24.55;5.68;;;5.90;99.90;;;;;;5050115;28;20064;-62
2024/01/25 10:29:15;;;;;;;25.75;6.00;;;6.00;99.90;;;;;;5053872;28;20052;-62
2024/01/25 10:31:43;;;;;;;28.67;5.90;;;6.00;99.90;;;;;;5067159;28;20055;-62
2024/01/25 10:34:12;;;;;;;24.67;5.80;;;6.10;99.90;;;;;;5061680;28;20059;-62
2024/01/25 10:36:40;;;;;;;22.48;7.30;;;6.10;99.90;;;;;;5047928;28;20073;-61
2024/01/25 10:39:09;;;;;;;20.58;5.68;;;6.30;99.90;;;;;;5064985;28;20048;-63
2024/01/25 10:41:35;;;;;;;22.27;5.47;;;6.20;99.90;;;;;;5052677;28;20048;-61
2024/01/25 10:44:06;;;;;;;28.17;6.80;;;6.50;99.90;;;;;;5068186;28;20052;-62
2024/01/25 10:46:33;;;;;;;23.52;5.85;;;6.30;99.90;;;;;;5068975;28;20044;-63
2024/01/25 10:49:01;;;;;;;18.83;6.97;;;6.40;99.90;;;;;;5070432;28;20114;-63
2024/01/25 10:51:30;;;;;;;23.45;6.40;;;6.40;99.90;;;;;;5049041;28;20048;-62
2024/01/25 10:53:58;;;;;;;26.25;6.25;;;6.60;99.90;;;;;;5054886;28;20056;-61
2024/01/25 10:56:24;;;;;;;22.67;6.38;;;6.40;99.90;;;;;;5068830;28;20045;-62
2024/01/25 10:58:51;;;;;;;22.13;5.80;;;6.40;99.90;;;;;;5063317;28;20049;-62
2024/01/25 11:01:17;;;;;;;21.55;5.68;;;6.40;99.90;;;;;;5050631;28;20068;-62
2024/01/25 11:03:49;;;;;;;26.15;6.28;;;6.70;99.90;;;;;;5055520;28;20060;-62
2024/01/25 11:06:17;;;;;;;;;;;6.50;99.90;;;;;;5070359;28;20452;-63
2024/01/25 11:08:43;;;;;;;19.92;6.05;;;6.50;99.90;;;;;;5069884;28;19927;-63
2024/01/25 11:11:14;;;;;;;25.25;5.78;;;6.50;99.90;;;;;;5068526;28;20057;-63
2024/01/25 11:13:43;;;;;;;24.60;6.90;;;6.60;99.90;;;;;;5066548;28;20122;-62
2024/01/25 11:16:34;;;;;;;24.23;6.50;;;6.80;99.90;;;;;;5049508;28;20523;-63
2024/01/25 11:19:05;;;;;;;26.42;6.72;;;6.80;99.90;;;;;;5050300;28;20048;-63
2024/01/25 11:21:50;;;;;;;25.15;6.32;;;6.90;99.90;;;;;;5049710;28;20067;-62
2024/01/25 11:24:28;;;;;;;28.17;6.20;;;7.10;99.90;;;;;;5057441;28;20095;-63
2024/01/25 11:26:55;;;;;;;26.73;6.30;;;7.10;99.90;;;;;;5068617;28;20052;-63
2024/01/25 11:29:22;;;;;;;31.48;7.55;;;7.10;99.90;;;;;;5069641;28;20048;-62
2024/01/25 11:31:51;;;;;;;22.42;5.88;;;7.20;99.90;;;;;;5057739;28;20128;-62
2024/01/25 11:34:21;;;;;;;26.65;7.28;;;7.30;99.90;;;;;;5059925;28;20046;-61
2024/01/25 11:36:48;;;;;;;27.17;6.68;;;7.30;99.90;;;;;;5051133;28;20044;-63
2024/01/25 11:39:16;;;;;;;26.27;6.60;;;7.40;99.90;;;;;;5050162;28;20045;-63
2024/01/25 11:41:45;;;;;;;29.60;6.53;;;7.40;99.90;;;;;;5068213;28;20044;-62
2024/01/25 11:44:15;;;;;;;20.75;6.85;;;7.30;99.90;;;;;;5067086;28;20059;-62
2024/01/25 11:46:42;;;;;;;22.25;6.18;;;7.70;99.90;;;;;;5068674;28;20063;-62
2024/01/25 11:49:08;;;;;;;29.13;7.13;;;7.70;99.90;;;;;;5068997;28;20147;-62
2024/01/25 11:51:34;;;;;;;25.95;6.28;;;7.80;99.90;;;;;;5069542;28;20044;-63
2024/01/25 11:54:01;;;;;;;26.15;6.30;;;7.90;99.90;;;;;;5068081;28;20640;-63
2024/01/25 11:56:32;;;;;;;28.10;7.00;;;7.80;99.90;;;;;;5068444;28;20067;-62
2024/01/25 11:58:59;;;;;;;28.20;6.45;;;7.90;99.90;;;;;;5067079;28;20060;-63
2024/01/25 12:01:26;;;;;;;17.30;5.70;;;8.00;99.90;;;;;;5068114;28;20040;-61
2024/01/25 12:03:53;;;;;;;32.10;6.47;;;8.10;99.90;;;;;;5067516;28;20056;-61
2024/01/25 12:06:20;;;;;;;21.33;6.38;;;7.90;99.90;;;;;;5068576;28;20472;-61
2024/01/25 12:08:48;;;;;;;26.98;6.15;;;8.10;99.90;;;;;;5049102;28;20064;-63
2024/01/25 12:11:15;;;;;;;26.90;5.75;;;8.10;99.90;;;;;;5065817;28;20566;-62
2024/01/25 12:13:42;;;;;;;25.23;5.93;;;7.90;99.90;;;;;;5050436;28;20063;-61
2024/01/25 12:16:10;;;;;;;29.13;6.47;;;7.90;99.90;;;;;;5067582;28;20075;-64
2024/01/25 12:18:41;;;;;;;28.35;6.10;;;8.00;99.90;;;;;;5069392;28;20060;-62
2024/01/25 12:21:09;;;;;;;29.52;7.03;;;8.00;99.90;;;;;;5068836;28;20067;-62
2024/01/25 12:23:38;;;;;;;24.58;6.05;;;8.10;99.90;;;;;;5066943;28;20432;-62
2024/01/25 12:26:06;;;;;;;28.42;6.30;;;8.00;99.90;;;;;;5066926;28;20128;-62
2024/01/25 12:28:33;;;;;;;27.13;7.25;;;8.10;99.90;;;;;;5068784;28;20405;-62
2024/01/25 12:31:03;;;;;;;22.40;5.65;;;8.10;99.90;;;;;;5068382;28;20097;-64
2024/01/25 12:33:32;;;;;;;24.42;6.43;;;8.20;99.90;;;;;;5068125;28;20052;-62
2024/01/25 12:35:59;;;;;;;26.35;5.60;;;8.20;99.90;;;;;;5048525;28;20040;-63
2024/01/25 12:38:29;;;;;;;28.30;7.03;;;8.30;99.90;;;;;;5058410;28;20044;-63
2024/01/25 12:40:55;;;;;;;18.25;5.68;;;8.30;99.90;;;;;;5067857;28;20045;-63
2024/01/25 12:43:24;;;;;;;25.23;6.35;;;8.50;99.90;;;;;;5051060;28;20045;-63
2024/01/25 12:45:51;;;;;;;22.85;5.43;;;8.40;99.90;;;;;;5064661;28;20437;-62
2024/01/25 12:48:18;;;;;;;18.85;5.97;;;8.40;99.90;;;;;;5069090;28;20058;-63